sensor_id;sensor_type;location;lat;lon;timestamp;temperature;humidity
22923;DHT22;11627;51.322;22.816;2022-10-15T00:01:44;9.10;81.90
22923;DHT22;11627;51.322;22.816;2022-10-15T00:04:09;8.90;81.60
22923;DHT22;11627;51.322;22.816;2022-10-15T00:06:35;9.30;81.70
22923;DHT22;11627;51.322;22.816;2022-10-15T00:09:01;9.10;77.30
22923;DHT22;11627;51.322;22.816;2022-10-15T00:11:28;9.30;81.70
22923;DHT22;11627;51.322;22.816;2022-10-15T00:13:55;9.00;71.70
22923;DHT22;11627;51.322;22.816;2022-10-15T00:16:23;9.20;81.70
22923;DHT22;11627;51.322;22.816;2022-10-15T00:18:50;9.30;80.80
22923;DHT22;11627;51.322;22.816;2022-10-15T00:21:18;9.00;80.80
22923;DHT22;11627;51.322;22.816;2022-10-15T00:23:45;9.00;80.30
22923;DHT22;11627;51.322;22.816;2022-10-15T00:26:14;9.20;80.20
22923;DHT22;11627;51.322;22.816;2022-10-15T00:28:40;8.90;80.20
22923;DHT22;11627;51.322;22.816;2022-10-15T00:31:16;8.80;72.80
22923;DHT22;11627;51.322;22.816;2022-10-15T00:33:43;9.10;80.00
22923;DHT22;11627;51.322;22.816;2022-10-15T00:36:17;8.90;77.30
22923;DHT22;11627;51.322;22.816;2022-10-15T00:38:44;9.00;80.70
22923;DHT22;11627;51.322;22.816;2022-10-15T00:41:16;8.70;81.30
22923;DHT22;11627;51.322;22.816;2022-10-15T00:46:26;9.20;80.90
22923;DHT22;11627;51.322;22.816;2022-10-15T00:49:00;9.00;71.00
22923;DHT22;11627;51.322;22.816;2022-10-15T00:51:30;9.00;71.50
22923;DHT22;11627;51.322;22.816;2022-10-15T00:53:57;9.00;82.10
22923;DHT22;11627;51.322;22.816;2022-10-15T00:56:24;9.30;82.00
22923;DHT22;11627;51.322;22.816;2022-10-15T00:58:52;9.10;81.80
22923;DHT22;11627;51.322;22.816;2022-10-15T01:03:44;9.40;81.70
22923;DHT22;11627;51.322;22.816;2022-10-15T01:06:10;9.00;76.60
22923;DHT22;11627;51.322;22.816;2022-10-15T01:08:36;9.20;81.30
22923;DHT22;11627;51.322;22.816;2022-10-15T01:11:27;9.20;81.30
22923;DHT22;11627;51.322;22.816;2022-10-15T01:29:31;9.10;80.50
22923;DHT22;11627;51.322;22.816;2022-10-15T01:43:55;9.30;80.50
22923;DHT22;11627;51.322;22.816;2022-10-15T01:46:37;9.20;80.30
22923;DHT22;11627;51.322;22.816;2022-10-15T01:49:06;9.10;80.60
22923;DHT22;11627;51.322;22.816;2022-10-15T01:51:36;9.60;74.50
22923;DHT22;11627;51.322;22.816;2022-10-15T01:54:04;8.90;81.40
22923;DHT22;11627;51.322;22.816;2022-10-15T01:56:33;9.20;71.10
22923;DHT22;11627;51.322;22.816;2022-10-15T01:59:01;9.20;77.70
22923;DHT22;11627;51.322;22.816;2022-10-15T02:01:27;9.40;81.50
22923;DHT22;11627;51.322;22.816;2022-10-15T02:03:53;9.30;81.70
22923;DHT22;11627;51.322;22.816;2022-10-15T02:06:36;9.20;70.90
22923;DHT22;11627;51.322;22.816;2022-10-15T02:09:20;9.10;81.20
22923;DHT22;11627;51.322;22.816;2022-10-15T02:14:37;9.20;72.20
22923;DHT22;11627;51.322;22.816;2022-10-15T02:17:09;9.10;79.60
22923;DHT22;11627;51.322;22.816;2022-10-15T02:19:56;9.20;82.10
22923;DHT22;11627;51.322;22.816;2022-10-15T02:22:31;9.20;72.20
22923;DHT22;11627;51.322;22.816;2022-10-15T02:25:03;9.10;82.10
22923;DHT22;11627;51.322;22.816;2022-10-15T02:27:32;9.20;72.20
22923;DHT22;11627;51.322;22.816;2022-10-15T02:30:01;9.20;72.30
22923;DHT22;11627;51.322;22.816;2022-10-15T02:32:29;9.50;82.40
22923;DHT22;11627;51.322;22.816;2022-10-15T02:34:56;9.00;81.30
22923;DHT22;11627;51.322;22.816;2022-10-15T02:37:25;9.20;72.50
22923;DHT22;11627;51.322;22.816;2022-10-15T02:39:52;9.40;82.90
22923;DHT22;11627;51.322;22.816;2022-10-15T02:42:18;9.20;73.70
22923;DHT22;11627;51.322;22.816;2022-10-15T02:44:44;9.10;83.80
22923;DHT22;11627;51.322;22.816;2022-10-15T02:47:10;9.30;84.50
22923;DHT22;11627;51.322;22.816;2022-10-15T02:49:36;9.10;82.30
22923;DHT22;11627;51.322;22.816;2022-10-15T02:52:03;9.30;74.10
22923;DHT22;11627;51.322;22.816;2022-10-15T02:54:28;9.20;84.00
22923;DHT22;11627;51.322;22.816;2022-10-15T02:56:54;9.60;84.70
22923;DHT22;11627;51.322;22.816;2022-10-15T02:59:20;9.10;83.90
22923;DHT22;11627;51.322;22.816;2022-10-15T03:01:46;8.90;80.30
22923;DHT22;11627;51.322;22.816;2022-10-15T03:04:12;9.50;83.80
22923;DHT22;11627;51.322;22.816;2022-10-15T03:06:38;9.50;84.70
22923;DHT22;11627;51.322;22.816;2022-10-15T03:09:04;9.20;84.00
22923;DHT22;11627;51.322;22.816;2022-10-15T03:11:29;9.40;84.50
22923;DHT22;11627;51.322;22.816;2022-10-15T03:13:55;9.30;85.20
22923;DHT22;11627;51.322;22.816;2022-10-15T03:16:21;9.20;84.50
22923;DHT22;11627;51.322;22.816;2022-10-15T03:23:39;9.50;84.90
22923;DHT22;11627;51.322;22.816;2022-10-15T03:26:04;9.10;84.50
22923;DHT22;11627;51.322;22.816;2022-10-15T03:28:30;9.20;84.40
22923;DHT22;11627;51.322;22.816;2022-10-15T03:30:56;9.30;82.80
22923;DHT22;11627;51.322;22.816;2022-10-15T03:33:21;9.10;83.90
22923;DHT22;11627;51.322;22.816;2022-10-15T03:35:47;9.40;80.10
22923;DHT22;11627;51.322;22.816;2022-10-15T03:38:13;9.40;75.10
22923;DHT22;11627;51.322;22.816;2022-10-15T03:47:57;9.10;82.90
22923;DHT22;11627;51.322;22.816;2022-10-15T03:50:23;9.30;83.10
22923;DHT22;11627;51.322;22.816;2022-10-15T03:52:48;9.30;83.00
22923;DHT22;11627;51.322;22.816;2022-10-15T03:55:14;9.00;82.90
22923;DHT22;11627;51.322;22.816;2022-10-15T03:57:40;9.10;82.60
22923;DHT22;11627;51.322;22.816;2022-10-15T04:00:07;9.10;71.80
22923;DHT22;11627;51.322;22.816;2022-10-15T04:02:33;8.90;82.50
22923;DHT22;11627;51.322;22.816;2022-10-15T04:04:58;9.10;83.00
22923;DHT22;11627;51.322;22.816;2022-10-15T04:09:50;9.10;83.50
22923;DHT22;11627;51.322;22.816;2022-10-15T04:12:16;9.20;83.80
22923;DHT22;11627;51.322;22.816;2022-10-15T04:17:08;9.50;84.10
22923;DHT22;11627;51.322;22.816;2022-10-15T04:19:34;9.20;83.50
22923;DHT22;11627;51.322;22.816;2022-10-15T04:24:27;9.00;83.80
22923;DHT22;11627;51.322;22.816;2022-10-15T04:39:04;9.30;82.70
22923;DHT22;11627;51.322;22.816;2022-10-15T04:43:57;8.90;77.30
22923;DHT22;11627;51.322;22.816;2022-10-15T04:48:49;9.20;81.90
22923;DHT22;11627;51.322;22.816;2022-10-15T04:51:19;8.90;78.60
22923;DHT22;11627;51.322;22.816;2022-10-15T04:53:45;9.20;82.00
22923;DHT22;11627;51.322;22.816;2022-10-15T04:56:13;9.00;70.70
22923;DHT22;11627;51.322;22.816;2022-10-15T04:58:41;9.20;80.90
22923;DHT22;11627;51.322;22.816;2022-10-15T05:01:09;9.00;70.40
22923;DHT22;11627;51.322;22.816;2022-10-15T05:03:39;9.00;70.10
22923;DHT22;11627;51.322;22.816;2022-10-15T05:06:11;9.10;81.00
22923;DHT22;11627;51.322;22.816;2022-10-15T05:08:38;9.20;81.10
22923;DHT22;11627;51.322;22.816;2022-10-15T05:11:21;8.80;74.90
22923;DHT22;11627;51.322;22.816;2022-10-15T05:21:06;9.10;81.60
22923;DHT22;11627;51.322;22.816;2022-10-15T05:23:32;9.30;81.60
22923;DHT22;11627;51.322;22.816;2022-10-15T05:26:02;9.00;81.60
22923;DHT22;11627;51.322;22.816;2022-10-15T05:28:29;9.10;81.60
22923;DHT22;11627;51.322;22.816;2022-10-15T05:30:54;9.20;81.40
22923;DHT22;11627;51.322;22.816;2022-10-15T05:33:20;9.10;81.30
22923;DHT22;11627;51.322;22.816;2022-10-15T05:35:46;8.90;80.10
22923;DHT22;11627;51.322;22.816;2022-10-15T05:38:12;9.30;80.80
22923;DHT22;11627;51.322;22.816;2022-10-15T05:40:37;9.10;80.70
22923;DHT22;11627;51.322;22.816;2022-10-15T05:45:29;8.90;80.40
22923;DHT22;11627;51.322;22.816;2022-10-15T05:50:22;9.20;68.80
22923;DHT22;11627;51.322;22.816;2022-10-15T05:52:48;9.00;79.20
22923;DHT22;11627;51.322;22.816;2022-10-15T05:55:14;9.30;80.00
22923;DHT22;11627;51.322;22.816;2022-10-15T05:57:39;9.10;80.00
22923;DHT22;11627;51.322;22.816;2022-10-15T06:00:06;9.40;80.20
22923;DHT22;11627;51.322;22.816;2022-10-15T06:02:32;9.10;81.00
22923;DHT22;11627;51.322;22.816;2022-10-15T06:04:58;9.40;80.80
22923;DHT22;11627;51.322;22.816;2022-10-15T06:07:23;9.20;81.00
22923;DHT22;11627;51.322;22.816;2022-10-15T06:09:49;9.20;81.00
22923;DHT22;11627;51.322;22.816;2022-10-15T06:12:15;9.50;81.30
22923;DHT22;11627;51.322;22.816;2022-10-15T06:14:40;9.50;81.00
22923;DHT22;11627;51.322;22.816;2022-10-15T06:19:32;9.30;81.50
22923;DHT22;11627;51.322;22.816;2022-10-15T06:21:57;9.40;82.20
22923;DHT22;11627;51.322;22.816;2022-10-15T06:24:23;9.50;81.50
22923;DHT22;11627;51.322;22.816;2022-10-15T06:26:49;9.40;81.20
22923;DHT22;11627;51.322;22.816;2022-10-15T06:29:15;9.40;81.80
22923;DHT22;11627;51.322;22.816;2022-10-15T06:31:41;9.40;81.60
22923;DHT22;11627;51.322;22.816;2022-10-15T06:34:07;9.30;81.40
22923;DHT22;11627;51.322;22.816;2022-10-15T06:41:24;9.90;82.10
22923;DHT22;11627;51.322;22.816;2022-10-15T06:46:16;9.90;81.30
22923;DHT22;11627;51.322;22.816;2022-10-15T06:51:08;10.00;80.40
22923;DHT22;11627;51.322;22.816;2022-10-15T06:56:01;9.50;79.10
22923;DHT22;11627;51.322;22.816;2022-10-15T06:58:27;9.80;72.50
22923;DHT22;11627;51.322;22.816;2022-10-15T07:01:04;9.80;69.00
22923;DHT22;11627;51.322;22.816;2022-10-15T07:03:30;9.90;77.10
22923;DHT22;11627;51.322;22.816;2022-10-15T07:06:01;9.80;78.50
22923;DHT22;11627;51.322;22.816;2022-10-15T07:08:28;9.80;78.90
22923;DHT22;11627;51.322;22.816;2022-10-15T07:10:53;9.60;78.90
22923;DHT22;11627;51.322;22.816;2022-10-15T07:13:19;9.80;73.10
22923;DHT22;11627;51.322;22.816;2022-10-15T07:15:45;9.60;79.30
22923;DHT22;11627;51.322;22.816;2022-10-15T07:18:11;9.90;77.90
22923;DHT22;11627;51.322;22.816;2022-10-15T07:20:37;10.00;80.10
22923;DHT22;11627;51.322;22.816;2022-10-15T07:27:55;10.30;72.90
22923;DHT22;11627;51.322;22.816;2022-10-15T07:30:22;10.20;81.60
22923;DHT22;11627;51.322;22.816;2022-10-15T07:35:14;10.60;81.50
22923;DHT22;11627;51.322;22.816;2022-10-15T07:37:40;10.80;81.70
22923;DHT22;11627;51.322;22.816;2022-10-15T07:40:06;10.70;81.20
22923;DHT22;11627;51.322;22.816;2022-10-15T07:42:32;10.70;80.20
22923;DHT22;11627;51.322;22.816;2022-10-15T07:49:49;11.00;78.70
22923;DHT22;11627;51.322;22.816;2022-10-15T07:52:15;11.10;78.30
22923;DHT22;11627;51.322;22.816;2022-10-15T07:57:07;11.20;68.60
22923;DHT22;11627;51.322;22.816;2022-10-15T07:59:33;11.50;72.10
22923;DHT22;11627;51.322;22.816;2022-10-15T08:01:59;11.20;75.30
22923;DHT22;11627;51.322;22.816;2022-10-15T08:04:25;11.50;74.40
22923;DHT22;11627;51.322;22.816;2022-10-15T08:09:17;11.70;71.60
22923;DHT22;11627;51.322;22.816;2022-10-15T08:14:08;11.70;70.30
22923;DHT22;11627;51.322;22.816;2022-10-15T08:16:34;11.40;70.30
22923;DHT22;11627;51.322;22.816;2022-10-15T08:19:00;11.40;69.80
22923;DHT22;11627;51.322;22.816;2022-10-15T08:21:25;11.70;68.20
22923;DHT22;11627;51.322;22.816;2022-10-15T08:23:51;11.70;66.20
22923;DHT22;11627;51.322;22.816;2022-10-15T08:26:17;11.90;67.40
22923;DHT22;11627;51.322;22.816;2022-10-15T08:31:09;11.80;66.10
22923;DHT22;11627;51.322;22.816;2022-10-15T08:33:36;12.00;66.30
22923;DHT22;11627;51.322;22.816;2022-10-15T08:36:06;12.10;65.50
22923;DHT22;11627;51.322;22.816;2022-10-15T08:38:33;12.00;64.10
22923;DHT22;11627;51.322;22.816;2022-10-15T08:41:00;12.00;54.40
22923;DHT22;11627;51.322;22.816;2022-10-15T08:43:38;12.20;62.80
22923;DHT22;11627;51.322;22.816;2022-10-15T08:46:22;11.80;62.70
22923;DHT22;11627;51.322;22.816;2022-10-15T08:48:53;12.10;57.40
22923;DHT22;11627;51.322;22.816;2022-10-15T08:51:22;12.20;57.00
22923;DHT22;11627;51.322;22.816;2022-10-15T08:53:52;12.10;53.50
22923;DHT22;11627;51.322;22.816;2022-10-15T08:56:37;11.90;56.20
22923;DHT22;11627;51.322;22.816;2022-10-15T08:59:26;12.20;58.10
22923;DHT22;11627;51.322;22.816;2022-10-15T09:04:58;12.20;59.70
22923;DHT22;11627;51.322;22.816;2022-10-15T09:10:38;12.30;59.60
22923;DHT22;11627;51.322;22.816;2022-10-15T09:13:34;12.80;58.50
22923;DHT22;11627;51.322;22.816;2022-10-15T09:16:26;12.70;57.10
22923;DHT22;11627;51.322;22.816;2022-10-15T09:18:52;12.70;56.80
22923;DHT22;11627;51.322;22.816;2022-10-15T09:21:19;12.50;57.20
22923;DHT22;11627;51.322;22.816;2022-10-15T09:26:28;12.80;59.00
22923;DHT22;11627;51.322;22.816;2022-10-15T09:29:24;13.10;56.90
22923;DHT22;11627;51.322;22.816;2022-10-15T09:31:53;12.70;55.80
22923;DHT22;11627;51.322;22.816;2022-10-15T09:34:36;12.90;53.20
22923;DHT22;11627;51.322;22.816;2022-10-15T09:43:03;13.30;47.90
22923;DHT22;11627;51.322;22.816;2022-10-15T09:45:30;13.40;46.40
22923;DHT22;11627;51.322;22.816;2022-10-15T09:47:58;13.20;39.40
22923;DHT22;11627;51.322;22.816;2022-10-15T09:50:55;13.30;45.80
22923;DHT22;11627;51.322;22.816;2022-10-15T09:53:40;13.30;44.50
22923;DHT22;11627;51.322;22.816;2022-10-15T09:56:19;13.50;33.90
22923;DHT22;11627;51.322;22.816;2022-10-15T09:58:56;13.50;43.80
22923;DHT22;11627;51.322;22.816;2022-10-15T10:01:32;13.50;41.40
22923;DHT22;11627;51.322;22.816;2022-10-15T10:04:17;13.60;28.50
22923;DHT22;11627;51.322;22.816;2022-10-15T10:07:00;13.60;33.90
22923;DHT22;11627;51.322;22.816;2022-10-15T10:09:34;13.70;37.60
22923;DHT22;11627;51.322;22.816;2022-10-15T10:12:03;13.60;29.60
22923;DHT22;11627;51.322;22.816;2022-10-15T10:14:52;13.80;44.90
22923;DHT22;11627;51.322;22.816;2022-10-15T10:17:20;14.10;34.70
22923;DHT22;11627;51.322;22.816;2022-10-15T10:26:03;14.00;31.50
22923;DHT22;11627;51.322;22.816;2022-10-15T10:28:45;14.10;24.90
22923;DHT22;11627;51.322;22.816;2022-10-15T10:33:42;14.10;25.80
22923;DHT22;11627;51.322;22.816;2022-10-15T10:36:25;14.00;25.00
22923;DHT22;11627;51.322;22.816;2022-10-15T10:39:03;14.10;25.20
22923;DHT22;11627;51.322;22.816;2022-10-15T10:44:37;14.20;11.20
22923;DHT22;11627;51.322;22.816;2022-10-15T10:49:35;14.10;15.30
22923;DHT22;11627;51.322;22.816;2022-10-15T10:52:02;14.40;13.30
22923;DHT22;11627;51.322;22.816;2022-10-15T10:54:29;14.20;10.30
22923;DHT22;11627;51.322;22.816;2022-10-15T10:56:58;14.40;5.10
22923;DHT22;11627;51.322;22.816;2022-10-15T10:59:31;14.40;5.40
22923;DHT22;11627;51.322;22.816;2022-10-15T11:01:59;14.70;10.40
22923;DHT22;11627;51.322;22.816;2022-10-15T11:04:26;14.40;5.10
22923;DHT22;11627;51.322;22.816;2022-10-15T11:07:04;14.50;5.00
22923;DHT22;11627;51.322;22.816;2022-10-15T11:12:39;14.50;10.10
22923;DHT22;11627;51.322;22.816;2022-10-15T11:21:16;14.50;7.40
22923;DHT22;11627;51.322;22.816;2022-10-15T11:31:50;14.90;1.00
22923;DHT22;11627;51.322;22.816;2022-10-15T11:37:39;14.80;1.00
22923;DHT22;11627;51.322;22.816;2022-10-15T11:40:31;15.20;1.00
22923;DHT22;11627;51.322;22.816;2022-10-15T11:45:42;15.10;1.00
22923;DHT22;11627;51.322;22.816;2022-10-15T11:55:18;15.20;1.00
22923;DHT22;11627;51.322;22.816;2022-10-15T11:57:48;15.20;1.00
22923;DHT22;11627;51.322;22.816;2022-10-15T12:00:28;15.10;1.00
22923;DHT22;11627;51.322;22.816;2022-10-15T12:03:35;15.40;2.30
22923;DHT22;11627;51.322;22.816;2022-10-15T12:06:14;15.20;1.00
22923;DHT22;11627;51.322;22.816;2022-10-15T12:08:42;15.60;1.00
22923;DHT22;11627;51.322;22.816;2022-10-15T12:11:38;15.30;1.00
22923;DHT22;11627;51.322;22.816;2022-10-15T12:15:03;15.40;1.00
22923;DHT22;11627;51.322;22.816;2022-10-15T12:17:21;15.40;1.00
22923;DHT22;11627;51.322;22.816;2022-10-15T12:20:20;15.70;1.00
22923;DHT22;11627;51.322;22.816;2022-10-15T12:22:53;15.80;1.00
22923;DHT22;11627;51.322;22.816;2022-10-15T12:25:38;15.60;1.00
22923;DHT22;11627;51.322;22.816;2022-10-15T12:28:15;15.70;1.00
22923;DHT22;11627;51.322;22.816;2022-10-15T12:30:55;15.80;1.00
22923;DHT22;11627;51.322;22.816;2022-10-15T12:33:30;15.70;1.00
22923;DHT22;11627;51.322;22.816;2022-10-15T12:35:59;15.50;1.00
22923;DHT22;11627;51.322;22.816;2022-10-15T12:38:26;15.60;1.00
22923;DHT22;11627;51.322;22.816;2022-10-15T12:43:28;15.50;1.00
22923;DHT22;11627;51.322;22.816;2022-10-15T12:46:04;15.40;1.00
22923;DHT22;11627;51.322;22.816;2022-10-15T12:48:41;15.40;1.00
22923;DHT22;11627;51.322;22.816;2022-10-15T12:53:50;15.40;1.00
22923;DHT22;11627;51.322;22.816;2022-10-15T12:58:52;15.00;1.00
22923;DHT22;11627;51.322;22.816;2022-10-15T13:14:28;15.80;1.00
22923;DHT22;11627;51.322;22.816;2022-10-15T13:16:55;15.50;1.00
22923;DHT22;11627;51.322;22.816;2022-10-15T13:19:26;15.50;1.00
22923;DHT22;11627;51.322;22.816;2022-10-15T13:21:55;15.50;1.00
22923;DHT22;11627;51.322;22.816;2022-10-15T13:24:24;15.50;1.00
22923;DHT22;11627;51.322;22.816;2022-10-15T13:26:51;15.40;1.00
22923;DHT22;11627;51.322;22.816;2022-10-15T13:29:23;15.20;1.00
22923;DHT22;11627;51.322;22.816;2022-10-15T13:31:53;15.20;1.00
22923;DHT22;11627;51.322;22.816;2022-10-15T13:34:34;15.50;1.00
22923;DHT22;11627;51.322;22.816;2022-10-15T13:37:02;15.50;1.00
22923;DHT22;11627;51.322;22.816;2022-10-15T13:39:37;15.40;1.00
22923;DHT22;11627;51.322;22.816;2022-10-15T13:42:18;15.40;1.00
22923;DHT22;11627;51.322;22.816;2022-10-15T13:44:55;15.30;1.00
22923;DHT22;11627;51.322;22.816;2022-10-15T13:55:36;15.50;1.00
22923;DHT22;11627;51.322;22.816;2022-10-15T13:58:25;15.20;1.00
22923;DHT22;11627;51.322;22.816;2022-10-15T14:01:17;15.20;1.00
22923;DHT22;11627;51.322;22.816;2022-10-15T14:03:58;15.10;1.00
22923;DHT22;11627;51.322;22.816;2022-10-15T14:08:52;15.20;1.00
22923;DHT22;11627;51.322;22.816;2022-10-15T14:11:19;15.10;1.00
22923;DHT22;11627;51.322;22.816;2022-10-15T14:16:56;15.10;1.00
22923;DHT22;11627;51.322;22.816;2022-10-15T14:19:23;15.20;1.00
22923;DHT22;11627;51.322;22.816;2022-10-15T14:21:55;15.10;1.00
22923;DHT22;11627;51.322;22.816;2022-10-15T14:24:26;15.10;1.00
22923;DHT22;11627;51.322;22.816;2022-10-15T14:26:52;15.10;1.00
22923;DHT22;11627;51.322;22.816;2022-10-15T14:29:21;15.10;1.00
22923;DHT22;11627;51.322;22.816;2022-10-15T14:31:48;15.10;1.00
22923;DHT22;11627;51.322;22.816;2022-10-15T14:37:00;15.10;1.00
22923;DHT22;11627;51.322;22.816;2022-10-15T14:39:35;15.10;1.00
22923;DHT22;11627;51.322;22.816;2022-10-15T14:42:06;15.00;1.00
22923;DHT22;11627;51.322;22.816;2022-10-15T14:44:50;15.00;1.00
22923;DHT22;11627;51.322;22.816;2022-10-15T14:47:24;15.00;1.00
22923;DHT22;11627;51.322;22.816;2022-10-15T14:49:56;14.90;1.80
22923;DHT22;11627;51.322;22.816;2022-10-15T14:52:24;14.90;2.20
22923;DHT22;11627;51.322;22.816;2022-10-15T14:55:13;14.80;8.10
22923;DHT22;11627;51.322;22.816;2022-10-15T14:57:42;14.80;2.60
22923;DHT22;11627;51.322;22.816;2022-10-15T15:00:23;14.70;3.70
22923;DHT22;11627;51.322;22.816;2022-10-15T15:02:50;14.70;4.40
22923;DHT22;11627;51.322;22.816;2022-10-15T15:05:22;14.70;4.10
22923;DHT22;11627;51.322;22.816;2022-10-15T15:07:48;14.60;5.70
22923;DHT22;11627;51.322;22.816;2022-10-15T15:10:14;14.60;6.40
22923;DHT22;11627;51.322;22.816;2022-10-15T15:12:45;14.60;6.80
22923;DHT22;11627;51.322;22.816;2022-10-15T15:15:16;14.50;6.80
22923;DHT22;11627;51.322;22.816;2022-10-15T15:17:42;14.50;6.60
22923;DHT22;11627;51.322;22.816;2022-10-15T15:20:09;14.50;12.10
22923;DHT22;11627;51.322;22.816;2022-10-15T15:22:36;14.40;13.80
22923;DHT22;11627;51.322;22.816;2022-10-15T15:25:32;14.40;8.20
22923;DHT22;11627;51.322;22.816;2022-10-15T15:27:59;14.40;8.50
22923;DHT22;11627;51.322;22.816;2022-10-15T15:30:27;14.40;8.60
22923;DHT22;11627;51.322;22.816;2022-10-15T15:32:53;14.50;15.10
22923;DHT22;11627;51.322;22.816;2022-10-15T15:35:43;14.50;15.50
22923;DHT22;11627;51.322;22.816;2022-10-15T15:38:21;14.30;10.40
22923;DHT22;11627;51.322;22.816;2022-10-15T15:40:48;14.30;10.40
22923;DHT22;11627;51.322;22.816;2022-10-15T15:43:16;14.00;17.30
22923;DHT22;11627;51.322;22.816;2022-10-15T15:48:08;14.10;18.60
22923;DHT22;11627;51.322;22.816;2022-10-15T15:50:35;14.40;19.70
22923;DHT22;11627;51.322;22.816;2022-10-15T15:53:01;14.20;20.60
22923;DHT22;11627;51.322;22.816;2022-10-15T15:55:27;14.30;22.20
22923;DHT22;11627;51.322;22.816;2022-10-15T15:57:53;13.90;22.20
22923;DHT22;11627;51.322;22.816;2022-10-15T16:00:19;14.00;22.00
22923;DHT22;11627;51.322;22.816;2022-10-15T16:02:45;14.30;22.00
22923;DHT22;11627;51.322;22.816;2022-10-15T16:05:13;14.10;22.40
22923;DHT22;11627;51.322;22.816;2022-10-15T16:07:40;14.00;20.40
22923;DHT22;11627;51.322;22.816;2022-10-15T16:10:06;14.00;19.10
22923;DHT22;11627;51.322;22.816;2022-10-15T16:12:34;14.00;19.00
22923;DHT22;11627;51.322;22.816;2022-10-15T16:14:59;13.80;18.10
22923;DHT22;11627;51.322;22.816;2022-10-15T16:17:26;13.80;17.60
22923;DHT22;11627;51.322;22.816;2022-10-15T16:19:51;13.60;15.00
22923;DHT22;11627;51.322;22.816;2022-10-15T16:22:17;13.90;8.80
22923;DHT22;11627;51.322;22.816;2022-10-15T16:24:43;13.80;11.50
22923;DHT22;11627;51.322;22.816;2022-10-15T16:27:09;14.00;9.60
22923;DHT22;11627;51.322;22.816;2022-10-15T16:29:34;13.60;9.80
22923;DHT22;11627;51.322;22.816;2022-10-15T16:32:00;14.10;10.10
22923;DHT22;11627;51.322;22.816;2022-10-15T16:34:26;13.70;11.00
22923;DHT22;11627;51.322;22.816;2022-10-15T16:36:52;13.80;5.30
22923;DHT22;11627;51.322;22.816;2022-10-15T16:39:18;13.70;12.20
22923;DHT22;11627;51.322;22.816;2022-10-15T16:41:43;14.00;12.60
22923;DHT22;11627;51.322;22.816;2022-10-15T16:44:09;13.70;12.70
22923;DHT22;11627;51.322;22.816;2022-10-15T16:46:35;13.60;13.30
22923;DHT22;11627;51.322;22.816;2022-10-15T16:49:01;13.70;12.80
22923;DHT22;11627;51.322;22.816;2022-10-15T16:51:26;14.00;12.00
22923;DHT22;11627;51.322;22.816;2022-10-15T16:53:52;13.50;13.10
22923;DHT22;11627;51.322;22.816;2022-10-15T16:56:27;13.50;13.30
22923;DHT22;11627;51.322;22.816;2022-10-15T16:58:54;13.50;13.00
22923;DHT22;11627;51.322;22.816;2022-10-15T17:01:25;13.60;12.30
22923;DHT22;11627;51.322;22.816;2022-10-15T17:03:51;13.60;5.70
22923;DHT22;11627;51.322;22.816;2022-10-15T17:06:23;13.60;11.80
22923;DHT22;11627;51.322;22.816;2022-10-15T17:08:54;13.70;11.90
22923;DHT22;11627;51.322;22.816;2022-10-15T17:11:31;13.30;11.70
22923;DHT22;11627;51.322;22.816;2022-10-15T17:14:00;13.60;11.40
22923;DHT22;11627;51.322;22.816;2022-10-15T17:16:46;13.60;11.00
22923;DHT22;11627;51.322;22.816;2022-10-15T17:19:15;13.50;11.40
22923;DHT22;11627;51.322;22.816;2022-10-15T17:21:41;13.60;12.30
22923;DHT22;11627;51.322;22.816;2022-10-15T17:24:09;13.50;6.10
22923;DHT22;11627;51.322;22.816;2022-10-15T17:26:36;13.40;13.00
22923;DHT22;11627;51.322;22.816;2022-10-15T17:29:07;13.50;14.30
22923;DHT22;11627;51.322;22.816;2022-10-15T17:31:35;13.60;14.10
22923;DHT22;11627;51.322;22.816;2022-10-15T17:34:04;13.10;13.80
22923;DHT22;11627;51.322;22.816;2022-10-15T17:36:31;13.40;15.40
22923;DHT22;11627;51.322;22.816;2022-10-15T17:38:58;13.10;15.10
22923;DHT22;11627;51.322;22.816;2022-10-15T17:41:26;13.30;8.90
22923;DHT22;11627;51.322;22.816;2022-10-15T17:43:52;13.70;16.30
22923;DHT22;11627;51.322;22.816;2022-10-15T17:46:21;13.50;17.10
22923;DHT22;11627;51.322;22.816;2022-10-15T17:48:48;13.30;17.90
22923;DHT22;11627;51.322;22.816;2022-10-15T17:51:17;13.30;19.10
22923;DHT22;11627;51.322;22.816;2022-10-15T17:53:43;13.40;18.80
22923;DHT22;11627;51.322;22.816;2022-10-15T17:56:21;12.90;19.40
22923;DHT22;11627;51.322;22.816;2022-10-15T17:58:47;13.20;13.60
22923;DHT22;11627;51.322;22.816;2022-10-15T18:01:18;13.10;20.60
22923;DHT22;11627;51.322;22.816;2022-10-15T18:03:44;13.20;14.60
22923;DHT22;11627;51.322;22.816;2022-10-15T18:06:16;13.20;14.80
22923;DHT22;11627;51.322;22.816;2022-10-15T18:08:42;13.40;21.90
22923;DHT22;11627;51.322;22.816;2022-10-15T18:11:14;13.20;15.80
22923;DHT22;11627;51.322;22.816;2022-10-15T18:13:40;13.10;22.30
22923;DHT22;11627;51.322;22.816;2022-10-15T18:16:05;13.10;23.30
22923;DHT22;11627;51.322;22.816;2022-10-15T18:18:31;13.10;23.90
22923;DHT22;11627;51.322;22.816;2022-10-15T18:20:57;13.00;24.00
22923;DHT22;11627;51.322;22.816;2022-10-15T18:23:23;13.30;24.10
22923;DHT22;11627;51.322;22.816;2022-10-15T18:28:27;13.10;24.60
22923;DHT22;11627;51.322;22.816;2022-10-15T18:30:53;12.90;25.70
22923;DHT22;11627;51.322;22.816;2022-10-15T18:35:45;13.20;26.00
22923;DHT22;11627;51.322;22.816;2022-10-15T18:38:11;13.10;26.10
22923;DHT22;11627;51.322;22.816;2022-10-15T18:40:37;12.80;27.00
22923;DHT22;11627;51.322;22.816;2022-10-15T18:43:03;12.90;27.20
22923;DHT22;11627;51.322;22.816;2022-10-15T18:45:30;12.90;27.00
22923;DHT22;11627;51.322;22.816;2022-10-15T18:50:22;13.00;26.70
22923;DHT22;11627;51.322;22.816;2022-10-15T18:52:48;12.80;26.80
22923;DHT22;11627;51.322;22.816;2022-10-15T18:57:40;12.80;25.80
22923;DHT22;11627;51.322;22.816;2022-10-15T19:00:06;13.30;25.70
22923;DHT22;11627;51.322;22.816;2022-10-15T19:02:32;13.20;24.80
22923;DHT22;11627;51.322;22.816;2022-10-15T19:04:58;13.00;19.30
22923;DHT22;11627;51.322;22.816;2022-10-15T19:07:24;13.10;24.70
22923;DHT22;11627;51.322;22.816;2022-10-15T19:09:49;13.00;24.40
22923;DHT22;11627;51.322;22.816;2022-10-15T19:12:15;13.10;24.50
22923;DHT22;11627;51.322;22.816;2022-10-15T19:14:43;12.90;18.50
22923;DHT22;11627;51.322;22.816;2022-10-15T19:24:28;12.90;24.60
22923;DHT22;11627;51.322;22.816;2022-10-15T19:31:47;12.80;17.70
22923;DHT22;11627;51.322;22.816;2022-10-15T19:34:13;12.80;21.50
22923;DHT22;11627;51.322;22.816;2022-10-15T19:36:42;12.80;20.60
22923;DHT22;11627;51.322;22.816;2022-10-15T19:39:15;12.90;20.00
22923;DHT22;11627;51.322;22.816;2022-10-15T19:41:43;12.90;13.70
22923;DHT22;11627;51.322;22.816;2022-10-15T19:44:11;13.10;19.70